sensor_id;sensor_type;location;lat;lon;timestamp;P1;durP1;ratioP1;P2;durP2;ratioP2
22363;SDS011;11349;53.412;-1.328;2023-05-07T00:00:02;18.98;;;16.13;;
22363;SDS011;11349;53.412;-1.328;2023-05-07T00:02:32;19.90;;;15.32;;
22363;SDS011;11349;53.412;-1.328;2023-05-07T00:04:58;20.60;;;16.52;;
22363;SDS011;11349;53.412;-1.328;2023-05-07T00:07:24;20.85;;;16.52;;
22363;SDS011;11349;53.412;-1.328;2023-05-07T00:09:50;18.65;;;15.70;;
22363;SDS011;11349;53.412;-1.328;2023-05-07T00:12:16;19.17;;;15.93;;
22363;SDS011;11349;53.412;-1.328;2023-05-07T00:14:41;19.48;;;16.13;;
22363;SDS011;11349;53.412;-1.328;2023-05-07T00:17:07;19.90;;;17.27;;
22363;SDS011;11349;53.412;-1.328;2023-05-07T00:19:33;19.55;;;15.70;;
22363;SDS011;11349;53.412;-1.328;2023-05-07T00:22:01;20.13;;;16.55;;
22363;SDS011;11349;53.412;-1.328;2023-05-07T00:24:27;22.27;;;17.40;;
22363;SDS011;11349;53.412;-1.328;2023-05-07T00:26:52;22.25;;;17.38;;
22363;SDS011;11349;53.412;-1.328;2023-05-07T00:29:18;20.65;;;16.65;;
22363;SDS011;11349;53.412;-1.328;2023-05-07T00:31:44;22.02;;;16.58;;
22363;SDS011;11349;53.412;-1.328;2023-05-07T00:34:09;19.58;;;15.95;;
22363;SDS011;11349;53.412;-1.328;2023-05-07T00:36:35;22.15;;;16.88;;
22363;SDS011;11349;53.412;-1.328;2023-05-07T00:39:01;21.50;;;16.40;;
22363;SDS011;11349;53.412;-1.328;2023-05-07T00:41:28;17.50;;;14.38;;
22363;SDS011;11349;53.412;-1.328;2023-05-07T00:43:58;17.33;;;14.10;;
22363;SDS011;11349;53.412;-1.328;2023-05-07T00:46:24;20.10;;;15.40;;
22363;SDS011;11349;53.412;-1.328;2023-05-07T00:48:50;18.73;;;15.30;;
22363;SDS011;11349;53.412;-1.328;2023-05-07T00:51:17;19.98;;;14.88;;
22363;SDS011;11349;53.412;-1.328;2023-05-07T00:53:43;19.23;;;15.63;;
22363;SDS011;11349;53.412;-1.328;2023-05-07T00:56:10;22.13;;;15.70;;
22363;SDS011;11349;53.412;-1.328;2023-05-07T00:58:36;20.52;;;15.15;;
22363;SDS011;11349;53.412;-1.328;2023-05-07T01:01:06;18.80;;;14.95;;
22363;SDS011;11349;53.412;-1.328;2023-05-07T01:03:32;19.30;;;15.23;;
22363;SDS011;11349;53.412;-1.328;2023-05-07T01:05:58;20.83;;;15.65;;
22363;SDS011;11349;53.412;-1.328;2023-05-07T01:08:28;21.00;;;15.80;;
22363;SDS011;11349;53.412;-1.328;2023-05-07T01:10:55;19.80;;;16.10;;
22363;SDS011;11349;53.412;-1.328;2023-05-07T01:13:22;22.65;;;16.00;;
22363;SDS011;11349;53.412;-1.328;2023-05-07T01:15:49;19.77;;;15.13;;
22363;SDS011;11349;53.412;-1.328;2023-05-07T01:18:15;20.20;;;15.68;;
22363;SDS011;11349;53.412;-1.328;2023-05-07T01:20:41;19.42;;;14.60;;
22363;SDS011;11349;53.412;-1.328;2023-05-07T01:23:07;20.35;;;15.98;;
22363;SDS011;11349;53.412;-1.328;2023-05-07T01:25:34;21.23;;;14.93;;
22363;SDS011;11349;53.412;-1.328;2023-05-07T01:28:00;22.42;;;15.88;;
22363;SDS011;11349;53.412;-1.328;2023-05-07T01:30:26;20.23;;;15.57;;
22363;SDS011;11349;53.412;-1.328;2023-05-07T01:32:56;21.23;;;16.17;;
22363;SDS011;11349;53.412;-1.328;2023-05-07T01:35:32;25.17;;;17.10;;
22363;SDS011;11349;53.412;-1.328;2023-05-07T01:38:02;20.45;;;15.63;;
22363;SDS011;11349;53.412;-1.328;2023-05-07T01:40:31;21.25;;;16.02;;
22363;SDS011;11349;53.412;-1.328;2023-05-07T01:42:59;21.13;;;15.55;;
22363;SDS011;11349;53.412;-1.328;2023-05-07T01:45:25;24.23;;;15.45;;
22363;SDS011;11349;53.412;-1.328;2023-05-07T01:47:52;24.17;;;17.35;;
22363;SDS011;11349;53.412;-1.328;2023-05-07T01:50:18;23.75;;;16.83;;
22363;SDS011;11349;53.412;-1.328;2023-05-07T01:52:45;22.50;;;16.67;;
22363;SDS011;11349;53.412;-1.328;2023-05-07T01:55:11;24.05;;;17.10;;
22363;SDS011;11349;53.412;-1.328;2023-05-07T01:57:37;25.67;;;17.77;;
22363;SDS011;11349;53.412;-1.328;2023-05-07T02:00:03;25.13;;;17.77;;
22363;SDS011;11349;53.412;-1.328;2023-05-07T02:02:30;26.58;;;18.75;;
22363;SDS011;11349;53.412;-1.328;2023-05-07T02:04:56;30.00;;;18.85;;
22363;SDS011;11349;53.412;-1.328;2023-05-07T02:07:22;28.17;;;18.27;;
22363;SDS011;11349;53.412;-1.328;2023-05-07T02:09:47;28.50;;;18.35;;
22363;SDS011;11349;53.412;-1.328;2023-05-07T02:12:13;35.72;;;19.65;;
22363;SDS011;11349;53.412;-1.328;2023-05-07T02:14:39;29.70;;;19.38;;
22363;SDS011;11349;53.412;-1.328;2023-05-07T02:17:07;29.63;;;18.75;;
22363;SDS011;11349;53.412;-1.328;2023-05-07T02:19:33;27.33;;;17.55;;
22363;SDS011;11349;53.412;-1.328;2023-05-07T02:21:59;34.10;;;20.05;;
22363;SDS011;11349;53.412;-1.328;2023-05-07T02:24:25;30.95;;;18.75;;
22363;SDS011;11349;53.412;-1.328;2023-05-07T02:26:50;34.05;;;19.58;;
22363;SDS011;11349;53.412;-1.328;2023-05-07T02:29:16;32.55;;;19.92;;
22363;SDS011;11349;53.412;-1.328;2023-05-07T02:31:42;33.72;;;19.95;;
22363;SDS011;11349;53.412;-1.328;2023-05-07T02:34:07;33.97;;;19.92;;
22363;SDS011;11349;53.412;-1.328;2023-05-07T02:36:33;32.90;;;18.98;;
22363;SDS011;11349;53.412;-1.328;2023-05-07T02:38:59;36.00;;;19.67;;
22363;SDS011;11349;53.412;-1.328;2023-05-07T02:41:25;33.88;;;19.77;;
22363;SDS011;11349;53.412;-1.328;2023-05-07T02:43:53;32.25;;;18.92;;
22363;SDS011;11349;53.412;-1.328;2023-05-07T02:46:18;37.65;;;19.80;;
22363;SDS011;11349;53.412;-1.328;2023-05-07T02:48:44;34.00;;;20.20;;
22363;SDS011;11349;53.412;-1.328;2023-05-07T02:51:10;38.08;;;21.88;;
22363;SDS011;11349;53.412;-1.328;2023-05-07T02:53:36;38.25;;;20.65;;
22363;SDS011;11349;53.412;-1.328;2023-05-07T02:56:01;37.75;;;20.58;;
22363;SDS011;11349;53.412;-1.328;2023-05-07T02:58:27;41.05;;;21.48;;
22363;SDS011;11349;53.412;-1.328;2023-05-07T03:00:53;36.35;;;19.92;;
22363;SDS011;11349;53.412;-1.328;2023-05-07T03:03:22;39.45;;;20.55;;
22363;SDS011;11349;53.412;-1.328;2023-05-07T03:05:50;36.15;;;19.70;;
22363;SDS011;11349;53.412;-1.328;2023-05-07T03:08:16;38.88;;;20.15;;
22363;SDS011;11349;53.412;-1.328;2023-05-07T03:10:42;38.20;;;20.58;;
22363;SDS011;11349;53.412;-1.328;2023-05-07T03:13:08;37.03;;;19.83;;
22363;SDS011;11349;53.412;-1.328;2023-05-07T03:15:33;38.20;;;19.77;;
22363;SDS011;11349;53.412;-1.328;2023-05-07T03:17:59;39.70;;;20.40;;
22363;SDS011;11349;53.412;-1.328;2023-05-07T03:20:25;38.95;;;21.23;;
22363;SDS011;11349;53.412;-1.328;2023-05-07T03:22:50;41.50;;;21.35;;
22363;SDS011;11349;53.412;-1.328;2023-05-07T03:25:16;41.50;;;21.88;;
22363;SDS011;11349;53.412;-1.328;2023-05-07T03:27:42;39.95;;;21.27;;
22363;SDS011;11349;53.412;-1.328;2023-05-07T03:30:08;40.10;;;20.25;;
22363;SDS011;11349;53.412;-1.328;2023-05-07T03:32:34;40.75;;;21.83;;
22363;SDS011;11349;53.412;-1.328;2023-05-07T03:35:00;40.65;;;20.88;;
22363;SDS011;11349;53.412;-1.328;2023-05-07T03:37:27;35.50;;;19.20;;
22363;SDS011;11349;53.412;-1.328;2023-05-07T03:39:53;39.63;;;20.75;;
22363;SDS011;11349;53.412;-1.328;2023-05-07T03:42:18;46.20;;;22.77;;
22363;SDS011;11349;53.412;-1.328;2023-05-07T03:44:44;43.33;;;22.27;;
22363;SDS011;11349;53.412;-1.328;2023-05-07T03:47:10;40.22;;;21.20;;
22363;SDS011;11349;53.412;-1.328;2023-05-07T03:49:36;39.03;;;19.60;;
22363;SDS011;11349;53.412;-1.328;2023-05-07T03:52:02;35.30;;;19.90;;
22363;SDS011;11349;53.412;-1.328;2023-05-07T03:54:27;34.47;;;18.13;;
22363;SDS011;11349;53.412;-1.328;2023-05-07T03:56:53;33.10;;;18.65;;
22363;SDS011;11349;53.412;-1.328;2023-05-07T03:59:22;30.88;;;17.42;;
22363;SDS011;11349;53.412;-1.328;2023-05-07T04:01:47;32.67;;;17.70;;
22363;SDS011;11349;53.412;-1.328;2023-05-07T04:04:16;33.47;;;18.05;;
22363;SDS011;11349;53.412;-1.328;2023-05-07T04:06:42;38.95;;;20.73;;
22363;SDS011;11349;53.412;-1.328;2023-05-07T04:09:07;32.50;;;18.23;;
22363;SDS011;11349;53.412;-1.328;2023-05-07T04:11:34;32.25;;;18.27;;
22363;SDS011;11349;53.412;-1.328;2023-05-07T04:14:00;31.98;;;18.13;;
22363;SDS011;11349;53.412;-1.328;2023-05-07T04:16:26;33.17;;;18.58;;
22363;SDS011;11349;53.412;-1.328;2023-05-07T04:18:52;29.83;;;16.05;;
22363;SDS011;11349;53.412;-1.328;2023-05-07T04:21:18;30.10;;;17.75;;
22363;SDS011;11349;53.412;-1.328;2023-05-07T04:23:45;29.20;;;16.52;;
22363;SDS011;11349;53.412;-1.328;2023-05-07T04:26:12;32.38;;;17.05;;
22363;SDS011;11349;53.412;-1.328;2023-05-07T04:28:38;28.20;;;15.43;;
22363;SDS011;11349;53.412;-1.328;2023-05-07T04:31:04;32.92;;;18.00;;
22363;SDS011;11349;53.412;-1.328;2023-05-07T04:33:30;32.47;;;17.08;;
22363;SDS011;11349;53.412;-1.328;2023-05-07T04:35:56;25.38;;;14.80;;
22363;SDS011;11349;53.412;-1.328;2023-05-07T04:38:23;27.48;;;14.95;;
22363;SDS011;11349;53.412;-1.328;2023-05-07T04:40:49;24.90;;;13.65;;
22363;SDS011;11349;53.412;-1.328;2023-05-07T04:43:15;25.20;;;14.23;;
22363;SDS011;11349;53.412;-1.328;2023-05-07T04:45:41;29.08;;;15.48;;
22363;SDS011;11349;53.412;-1.328;2023-05-07T04:48:07;23.25;;;12.32;;
22363;SDS011;11349;53.412;-1.328;2023-05-07T04:50:35;22.40;;;13.13;;
22363;SDS011;11349;53.412;-1.328;2023-05-07T04:53:01;22.77;;;12.63;;
22363;SDS011;11349;53.412;-1.328;2023-05-07T04:55:28;21.25;;;11.95;;
22363;SDS011;11349;53.412;-1.328;2023-05-07T04:57:53;23.58;;;13.30;;
22363;SDS011;11349;53.412;-1.328;2023-05-07T05:00:19;24.33;;;12.02;;
22363;SDS011;11349;53.412;-1.328;2023-05-07T05:02:45;23.15;;;13.90;;
22363;SDS011;11349;53.412;-1.328;2023-05-07T05:05:11;29.35;;;16.13;;
22363;SDS011;11349;53.412;-1.328;2023-05-07T05:07:37;31.23;;;16.73;;
22363;SDS011;11349;53.412;-1.328;2023-05-07T05:10:03;31.95;;;16.38;;
22363;SDS011;11349;53.412;-1.328;2023-05-07T05:12:30;30.77;;;16.27;;
22363;SDS011;11349;53.412;-1.328;2023-05-07T05:14:56;30.45;;;15.30;;
22363;SDS011;11349;53.412;-1.328;2023-05-07T05:17:22;29.88;;;15.52;;
22363;SDS011;11349;53.412;-1.328;2023-05-07T05:19:48;30.00;;;16.02;;
22363;SDS011;11349;53.412;-1.328;2023-05-07T05:22:16;28.92;;;14.52;;
22363;SDS011;11349;53.412;-1.328;2023-05-07T05:24:41;28.38;;;16.42;;
22363;SDS011;11349;53.412;-1.328;2023-05-07T05:27:10;28.98;;;15.55;;
22363;SDS011;11349;53.412;-1.328;2023-05-07T05:29:36;27.52;;;13.88;;
22363;SDS011;11349;53.412;-1.328;2023-05-07T05:32:02;29.23;;;15.10;;
22363;SDS011;11349;53.412;-1.328;2023-05-07T05:34:27;29.52;;;15.18;;
22363;SDS011;11349;53.412;-1.328;2023-05-07T05:36:53;32.88;;;16.02;;
22363;SDS011;11349;53.412;-1.328;2023-05-07T05:39:19;44.47;;;18.50;;
22363;SDS011;11349;53.412;-1.328;2023-05-07T05:41:44;37.28;;;17.08;;
22363;SDS011;11349;53.412;-1.328;2023-05-07T05:44:10;39.13;;;17.77;;
22363;SDS011;11349;53.412;-1.328;2023-05-07T05:46:36;41.45;;;18.35;;
22363;SDS011;11349;53.412;-1.328;2023-05-07T05:49:01;39.90;;;18.90;;
22363;SDS011;11349;53.412;-1.328;2023-05-07T05:51:27;35.33;;;16.45;;
22363;SDS011;11349;53.412;-1.328;2023-05-07T05:53:53;28.88;;;15.55;;
22363;SDS011;11349;53.412;-1.328;2023-05-07T05:56:19;35.05;;;17.52;;
22363;SDS011;11349;53.412;-1.328;2023-05-07T05:58:46;31.58;;;15.50;;
22363;SDS011;11349;53.412;-1.328;2023-05-07T06:01:11;33.97;;;16.55;;
22363;SDS011;11349;53.412;-1.328;2023-05-07T06:03:37;28.15;;;14.52;;
22363;SDS011;11349;53.412;-1.328;2023-05-07T06:06:03;28.65;;;15.40;;
22363;SDS011;11349;53.412;-1.328;2023-05-07T06:08:29;27.83;;;15.38;;
22363;SDS011;11349;53.412;-1.328;2023-05-07T06:10:55;31.33;;;15.95;;
22363;SDS011;11349;53.412;-1.328;2023-05-07T06:13:21;24.95;;;13.95;;
22363;SDS011;11349;53.412;-1.328;2023-05-07T06:15:47;24.10;;;14.45;;
22363;SDS011;11349;53.412;-1.328;2023-05-07T06:18:14;25.25;;;14.70;;
22363;SDS011;11349;53.412;-1.328;2023-05-07T06:20:39;21.73;;;14.07;;
22363;SDS011;11349;53.412;-1.328;2023-05-07T06:23:05;22.08;;;13.75;;
22363;SDS011;11349;53.412;-1.328;2023-05-07T06:25:31;21.33;;;13.63;;
22363;SDS011;11349;53.412;-1.328;2023-05-07T06:27:57;25.42;;;14.98;;
22363;SDS011;11349;53.412;-1.328;2023-05-07T06:30:22;24.13;;;14.90;;
22363;SDS011;11349;53.412;-1.328;2023-05-07T06:32:48;21.73;;;14.02;;
22363;SDS011;11349;53.412;-1.328;2023-05-07T06:35:14;22.80;;;14.35;;
22363;SDS011;11349;53.412;-1.328;2023-05-07T06:37:41;21.42;;;13.43;;
22363;SDS011;11349;53.412;-1.328;2023-05-07T06:40:07;19.77;;;13.38;;
22363;SDS011;11349;53.412;-1.328;2023-05-07T06:42:35;21.27;;;13.73;;
22363;SDS011;11349;53.412;-1.328;2023-05-07T06:45:01;13.45;;;9.48;;
22363;SDS011;11349;53.412;-1.328;2023-05-07T06:47:27;11.70;;;8.43;;
22363;SDS011;11349;53.412;-1.328;2023-05-07T06:49:53;11.75;;;8.40;;
22363;SDS011;11349;53.412;-1.328;2023-05-07T06:52:19;11.75;;;9.20;;
22363;SDS011;11349;53.412;-1.328;2023-05-07T06:54:45;10.13;;;7.82;;
22363;SDS011;11349;53.412;-1.328;2023-05-07T06:57:10;11.30;;;8.98;;
22363;SDS011;11349;53.412;-1.328;2023-05-07T06:59:39;12.95;;;8.68;;
22363;SDS011;11349;53.412;-1.328;2023-05-07T07:02:04;11.50;;;9.20;;
22363;SDS011;11349;53.412;-1.328;2023-05-07T07:04:30;12.88;;;9.63;;
22363;SDS011;11349;53.412;-1.328;2023-05-07T07:06:56;13.48;;;9.20;;
22363;SDS011;11349;53.412;-1.328;2023-05-07T07:09:22;12.25;;;9.80;;
22363;SDS011;11349;53.412;-1.328;2023-05-07T07:11:48;13.55;;;10.35;;
22363;SDS011;11349;53.412;-1.328;2023-05-07T07:14:14;13.07;;;9.00;;
22363;SDS011;11349;53.412;-1.328;2023-05-07T07:16:39;13.00;;;10.05;;
22363;SDS011;11349;53.412;-1.328;2023-05-07T07:19:06;12.18;;;9.68;;
22363;SDS011;11349;53.412;-1.328;2023-05-07T07:21:31;14.23;;;9.50;;
22363;SDS011;11349;53.412;-1.328;2023-05-07T07:23:57;13.65;;;10.02;;
22363;SDS011;11349;53.412;-1.328;2023-05-07T07:26:23;13.15;;;9.48;;
22363;SDS011;11349;53.412;-1.328;2023-05-07T07:28:48;11.90;;;8.85;;
22363;SDS011;11349;53.412;-1.328;2023-05-07T07:31:14;13.65;;;8.95;;
22363;SDS011;11349;53.412;-1.328;2023-05-07T07:33:40;12.38;;;8.23;;
22363;SDS011;11349;53.412;-1.328;2023-05-07T07:36:06;10.52;;;7.10;;
22363;SDS011;11349;53.412;-1.328;2023-05-07T07:38:32;12.38;;;8.52;;
22363;SDS011;11349;53.412;-1.328;2023-05-07T07:40:58;12.68;;;8.60;;
22363;SDS011;11349;53.412;-1.328;2023-05-07T07:43:24;10.45;;;8.18;;
22363;SDS011;11349;53.412;-1.328;2023-05-07T07:45:50;11.30;;;8.05;;
22363;SDS011;11349;53.412;-1.328;2023-05-07T07:48:16;10.02;;;7.00;;
22363;SDS011;11349;53.412;-1.328;2023-05-07T07:50:41;10.52;;;6.90;;
22363;SDS011;11349;53.412;-1.328;2023-05-07T07:53:07;10.55;;;6.18;;
22363;SDS011;11349;53.412;-1.328;2023-05-07T07:55:37;9.20;;;7.40;;
22363;SDS011;11349;53.412;-1.328;2023-05-07T07:58:04;8.88;;;6.35;;
22363;SDS011;11349;53.412;-1.328;2023-05-07T08:00:30;8.23;;;6.10;;
22363;SDS011;11349;53.412;-1.328;2023-05-07T08:02:56;8.68;;;6.30;;
22363;SDS011;11349;53.412;-1.328;2023-05-07T08:05:22;9.50;;;5.32;;
22363;SDS011;11349;53.412;-1.328;2023-05-07T08:07:48;10.10;;;6.53;;
22363;SDS011;11349;53.412;-1.328;2023-05-07T08:10:18;9.52;;;5.85;;
22363;SDS011;11349;53.412;-1.328;2023-05-07T08:12:47;8.65;;;5.72;;
22363;SDS011;11349;53.412;-1.328;2023-05-07T08:15:14;8.73;;;5.80;;
22363;SDS011;11349;53.412;-1.328;2023-05-07T08:17:40;6.90;;;4.75;;
22363;SDS011;11349;53.412;-1.328;2023-05-07T08:20:07;7.70;;;5.18;;
22363;SDS011;11349;53.412;-1.328;2023-05-07T08:22:34;7.88;;;5.88;;
22363;SDS011;11349;53.412;-1.328;2023-05-07T08:25:00;7.47;;;4.88;;
22363;SDS011;11349;53.412;-1.328;2023-05-07T08:27:26;6.05;;;4.55;;
22363;SDS011;11349;53.412;-1.328;2023-05-07T08:29:52;6.47;;;4.50;;
22363;SDS011;11349;53.412;-1.328;2023-05-07T08:32:17;7.45;;;4.63;;
22363;SDS011;11349;53.412;-1.328;2023-05-07T08:34:43;6.20;;;3.97;;
22363;SDS011;11349;53.412;-1.328;2023-05-07T08:37:09;5.68;;;4.10;;
22363;SDS011;11349;53.412;-1.328;2023-05-07T08:39:34;6.32;;;3.95;;
22363;SDS011;11349;53.412;-1.328;2023-05-07T08:42:00;5.25;;;4.07;;
22363;SDS011;11349;53.412;-1.328;2023-05-07T08:44:33;5.50;;;3.53;;
22363;SDS011;11349;53.412;-1.328;2023-05-07T08:47:02;4.72;;;3.33;;
22363;SDS011;11349;53.412;-1.328;2023-05-07T08:49:31;4.60;;;3.42;;
22363;SDS011;11349;53.412;-1.328;2023-05-07T08:51:58;4.78;;;3.20;;
22363;SDS011;11349;53.412;-1.328;2023-05-07T08:54:24;4.07;;;2.80;;
22363;SDS011;11349;53.412;-1.328;2023-05-07T08:56:51;4.90;;;2.83;;
22363;SDS011;11349;53.412;-1.328;2023-05-07T08:59:16;3.95;;;2.70;;
22363;SDS011;11349;53.412;-1.328;2023-05-07T09:01:42;4.60;;;3.30;;
22363;SDS011;11349;53.412;-1.328;2023-05-07T09:04:08;6.07;;;2.88;;
22363;SDS011;11349;53.412;-1.328;2023-05-07T09:06:34;5.10;;;3.00;;
22363;SDS011;11349;53.412;-1.328;2023-05-07T09:09:00;4.70;;;3.20;;
22363;SDS011;11349;53.412;-1.328;2023-05-07T09:11:26;5.28;;;3.47;;
22363;SDS011;11349;53.412;-1.328;2023-05-07T09:13:56;4.28;;;3.22;;
22363;SDS011;11349;53.412;-1.328;2023-05-07T09:16:25;6.35;;;3.30;;
22363;SDS011;11349;53.412;-1.328;2023-05-07T09:18:51;4.25;;;2.70;;
22363;SDS011;11349;53.412;-1.328;2023-05-07T09:21:18;6.80;;;2.70;;
22363;SDS011;11349;53.412;-1.328;2023-05-07T09:23:51;4.97;;;2.85;;
22363;SDS011;11349;53.412;-1.328;2023-05-07T09:26:18;4.65;;;3.08;;
22363;SDS011;11349;53.412;-1.328;2023-05-07T09:28:46;3.97;;;2.67;;
22363;SDS011;11349;53.412;-1.328;2023-05-07T09:31:12;4.20;;;2.83;;
22363;SDS011;11349;53.412;-1.328;2023-05-07T09:33:38;4.00;;;2.70;;
22363;SDS011;11349;53.412;-1.328;2023-05-07T09:36:07;3.75;;;2.38;;
22363;SDS011;11349;53.412;-1.328;2023-05-07T09:38:34;5.85;;;3.28;;
22363;SDS011;11349;53.412;-1.328;2023-05-07T09:43:34;3.90;;;2.40;;
22363;SDS011;11349;53.412;-1.328;2023-05-07T09:46:11;3.72;;;2.38;;
22363;SDS011;11349;53.412;-1.328;2023-05-07T09:48:39;3.97;;;2.20;;
22363;SDS011;11349;53.412;-1.328;2023-05-07T09:51:10;3.83;;;2.38;;
22363;SDS011;11349;53.412;-1.328;2023-05-07T09:53:59;4.05;;;2.38;;
22363;SDS011;11349;53.412;-1.328;2023-05-07T09:56:29;4.00;;;2.42;;
22363;SDS011;11349;53.412;-1.328;2023-05-07T09:58:56;5.68;;;2.92;;
22363;SDS011;11349;53.412;-1.328;2023-05-07T10:01:25;3.80;;;2.25;;
22363;SDS011;11349;53.412;-1.328;2023-05-07T10:03:52;4.95;;;2.75;;
22363;SDS011;11349;53.412;-1.328;2023-05-07T10:06:19;3.95;;;2.70;;
22363;SDS011;11349;53.412;-1.328;2023-05-07T10:08:48;4.65;;;2.65;;
22363;SDS011;11349;53.412;-1.328;2023-05-07T10:11:15;3.67;;;2.42;;
22363;SDS011;11349;53.412;-1.328;2023-05-07T10:13:42;5.15;;;3.25;;
22363;SDS011;11349;53.412;-1.328;2023-05-07T10:16:08;5.93;;;3.13;;
22363;SDS011;11349;53.412;-1.328;2023-05-07T10:18:34;5.13;;;3.22;;
22363;SDS011;11349;53.412;-1.328;2023-05-07T10:23:45;4.45;;;2.90;;
22363;SDS011;11349;53.412;-1.328;2023-05-07T10:26:19;5.13;;;2.63;;
22363;SDS011;11349;53.412;-1.328;2023-05-07T10:28:48;3.47;;;2.00;;
22363;SDS011;11349;53.412;-1.328;2023-05-07T10:34:23;6.65;;;3.00;;
22363;SDS011;11349;53.412;-1.328;2023-05-07T10:36:52;4.82;;;3.60;;
22363;SDS011;11349;53.412;-1.328;2023-05-07T10:39:20;6.80;;;3.25;;
22363;SDS011;11349;53.412;-1.328;2023-05-07T10:41:47;6.38;;;3.85;;
22363;SDS011;11349;53.412;-1.328;2023-05-07T10:44:28;6.38;;;3.92;;
22363;SDS011;11349;53.412;-1.328;2023-05-07T10:47:07;5.25;;;3.72;;
22363;SDS011;11349;53.412;-1.328;2023-05-07T10:52:15;5.07;;;3.35;;
22363;SDS011;11349;53.412;-1.328;2023-05-07T10:54:42;6.88;;;3.63;;
22363;SDS011;11349;53.412;-1.328;2023-05-07T10:59:57;6.53;;;3.80;;
22363;SDS011;11349;53.412;-1.328;2023-05-07T11:02:23;7.22;;;5.03;;
22363;SDS011;11349;53.412;-1.328;2023-05-07T11:05:18;7.55;;;4.43;;
22363;SDS011;11349;53.412;-1.328;2023-05-07T11:07:54;7.18;;;4.68;;
22363;SDS011;11349;53.412;-1.328;2023-05-07T11:10:20;5.35;;;3.30;;
22363;SDS011;11349;53.412;-1.328;2023-05-07T11:12:50;6.65;;;3.80;;
22363;SDS011;11349;53.412;-1.328;2023-05-07T11:15:50;6.22;;;4.20;;
22363;SDS011;11349;53.412;-1.328;2023-05-07T11:18:13;5.30;;;3.92;;
22363;SDS011;11349;53.412;-1.328;2023-05-07T11:26:03;6.35;;;3.85;;
22363;SDS011;11349;53.412;-1.328;2023-05-07T11:28:30;4.20;;;3.10;;
22363;SDS011;11349;53.412;-1.328;2023-05-07T11:31:01;7.35;;;3.78;;
22363;SDS011;11349;53.412;-1.328;2023-05-07T11:33:27;4.95;;;2.97;;
22363;SDS011;11349;53.412;-1.328;2023-05-07T11:35:55;5.53;;;2.95;;
22363;SDS011;11349;53.412;-1.328;2023-05-07T11:38:21;5.60;;;3.08;;
22363;SDS011;11349;53.412;-1.328;2023-05-07T11:40:57;6.05;;;3.20;;
22363;SDS011;11349;53.412;-1.328;2023-05-07T11:43:25;5.00;;;2.78;;
22363;SDS011;11349;53.412;-1.328;2023-05-07T11:45:51;5.90;;;3.05;;
22363;SDS011;11349;53.412;-1.328;2023-05-07T11:48:17;4.45;;;3.13;;
22363;SDS011;11349;53.412;-1.328;2023-05-07T11:51:19;4.35;;;2.70;;
22363;SDS011;11349;53.412;-1.328;2023-05-07T11:53:39;4.57;;;2.30;;
22363;SDS011;11349;53.412;-1.328;2023-05-07T11:56:06;5.30;;;2.33;;
22363;SDS011;11349;53.412;-1.328;2023-05-07T11:58:36;3.10;;;2.00;;
22363;SDS011;11349;53.412;-1.328;2023-05-07T12:01:02;4.65;;;2.13;;
22363;SDS011;11349;53.412;-1.328;2023-05-07T12:03:28;3.60;;;2.22;;
22363;SDS011;11349;53.412;-1.328;2023-05-07T12:05:54;2.78;;;1.67;;
22363;SDS011;11349;53.412;-1.328;2023-05-07T12:08:20;5.30;;;2.20;;
22363;SDS011;11349;53.412;-1.328;2023-05-07T12:10:48;2.78;;;1.70;;
22363;SDS011;11349;53.412;-1.328;2023-05-07T12:13:15;4.15;;;1.45;;
22363;SDS011;11349;53.412;-1.328;2023-05-07T12:15:52;4.90;;;2.03;;
22363;SDS011;11349;53.412;-1.328;2023-05-07T12:18:20;4.38;;;1.88;;
22363;SDS011;11349;53.412;-1.328;2023-05-07T12:20:46;4.53;;;1.98;;
22363;SDS011;11349;53.412;-1.328;2023-05-07T12:23:13;3.05;;;1.90;;
22363;SDS011;11349;53.412;-1.328;2023-05-07T12:25:40;3.08;;;1.92;;
22363;SDS011;11349;53.412;-1.328;2023-05-07T12:28:14;4.53;;;1.98;;
22363;SDS011;11349;53.412;-1.328;2023-05-07T12:30:44;4.75;;;1.80;;
22363;SDS011;11349;53.412;-1.328;2023-05-07T12:33:11;4.25;;;2.10;;
22363;SDS011;11349;53.412;-1.328;2023-05-07T12:35:41;4.07;;;1.90;;
22363;SDS011;11349;53.412;-1.328;2023-05-07T12:38:12;3.00;;;1.60;;
22363;SDS011;11349;53.412;-1.328;2023-05-07T12:40:40;3.25;;;1.80;;
22363;SDS011;11349;53.412;-1.328;2023-05-07T12:43:07;3.75;;;2.15;;
22363;SDS011;11349;53.412;-1.328;2023-05-07T12:45:41;4.40;;;1.85;;
22363;SDS011;11349;53.412;-1.328;2023-05-07T12:48:07;5.82;;;1.92;;
22363;SDS011;11349;53.412;-1.328;2023-05-07T12:50:35;5.75;;;1.77;;
22363;SDS011;11349;53.412;-1.328;2023-05-07T12:53:05;3.80;;;1.77;;
22363;SDS011;11349;53.412;-1.328;2023-05-07T12:55:40;2.70;;;1.52;;
22363;SDS011;11349;53.412;-1.328;2023-05-07T12:58:07;5.35;;;1.73;;
22363;SDS011;11349;53.412;-1.328;2023-05-07T13:00:36;4.03;;;2.05;;
22363;SDS011;11349;53.412;-1.328;2023-05-07T13:03:03;6.03;;;1.60;;
22363;SDS011;11349;53.412;-1.328;2023-05-07T13:05:30;4.03;;;1.83;;
22363;SDS011;11349;53.412;-1.328;2023-05-07T13:07:56;5.95;;;1.90;;
22363;SDS011;11349;53.412;-1.328;2023-05-07T13:10:23;3.53;;;1.52;;
22363;SDS011;11349;53.412;-1.328;2023-05-07T13:12:49;4.57;;;1.83;;
22363;SDS011;11349;53.412;-1.328;2023-05-07T13:15:15;5.13;;;1.45;;
22363;SDS011;11349;53.412;-1.328;2023-05-07T13:17:41;4.13;;;1.40;;
22363;SDS011;11349;53.412;-1.328;2023-05-07T13:20:08;6.00;;;1.92;;
22363;SDS011;11349;53.412;-1.328;2023-05-07T13:22:38;3.47;;;1.40;;
22363;SDS011;11349;53.412;-1.328;2023-05-07T13:25:05;4.18;;;2.00;;
22363;SDS011;11349;53.412;-1.328;2023-05-07T13:27:31;6.68;;;2.70;;
22363;SDS011;11349;53.412;-1.328;2023-05-07T13:29:57;8.55;;;3.90;;
22363;SDS011;11349;53.412;-1.328;2023-05-07T13:32:23;7.93;;;2.65;;
22363;SDS011;11349;53.412;-1.328;2023-05-07T13:34:48;4.43;;;2.10;;
22363;SDS011;11349;53.412;-1.328;2023-05-07T13:37:14;5.75;;;1.60;;
22363;SDS011;11349;53.412;-1.328;2023-05-07T13:39:40;4.95;;;2.30;;
22363;SDS011;11349;53.412;-1.328;2023-05-07T13:42:09;4.65;;;1.88;;
22363;SDS011;11349;53.412;-1.328;2023-05-07T13:44:35;5.28;;;2.22;;
22363;SDS011;11349;53.412;-1.328;2023-05-07T13:47:00;6.07;;;2.22;;
22363;SDS011;11349;53.412;-1.328;2023-05-07T13:49:26;5.65;;;2.60;;
22363;SDS011;11349;53.412;-1.328;2023-05-07T13:51:52;4.55;;;1.80;;
22363;SDS011;11349;53.412;-1.328;2023-05-07T13:54:18;5.40;;;1.90;;
22363;SDS011;11349;53.412;-1.328;2023-05-07T13:56:44;4.22;;;1.42;;
22363;SDS011;11349;53.412;-1.328;2023-05-07T13:59:09;4.32;;;1.35;;
22363;SDS011;11349;53.412;-1.328;2023-05-07T14:01:35;5.88;;;1.73;;
22363;SDS011;11349;53.412;-1.328;2023-05-07T14:04:00;3.88;;;1.60;;
22363;SDS011;11349;53.412;-1.328;2023-05-07T14:06:26;7.93;;;2.67;;
22363;SDS011;11349;53.412;-1.328;2023-05-07T14:08:52;3.42;;;1.52;;
22363;SDS011;11349;53.412;-1.328;2023-05-07T14:11:17;5.13;;;2.08;;
22363;SDS011;11349;53.412;-1.328;2023-05-07T14:13:43;7.50;;;3.00;;
22363;SDS011;11349;53.412;-1.328;2023-05-07T14:16:09;5.07;;;1.48;;
22363;SDS011;11349;53.412;-1.328;2023-05-07T14:18:35;5.82;;;1.73;;
22363;SDS011;11349;53.412;-1.328;2023-05-07T14:21:02;5.53;;;1.33;;
22363;SDS011;11349;53.412;-1.328;2023-05-07T14:23:28;5.78;;;1.85;;
22363;SDS011;11349;53.412;-1.328;2023-05-07T14:25:54;5.22;;;1.55;;
22363;SDS011;11349;53.412;-1.328;2023-05-07T14:28:22;7.45;;;1.50;;
22363;SDS011;11349;53.412;-1.328;2023-05-07T14:30:48;4.50;;;1.60;;
22363;SDS011;11349;53.412;-1.328;2023-05-07T14:33:14;6.93;;;2.10;;
22363;SDS011;11349;53.412;-1.328;2023-05-07T14:35:39;5.80;;;2.20;;
22363;SDS011;11349;53.412;-1.328;2023-05-07T14:38:05;7.07;;;2.72;;